logo
Rechercher aéroport 
image banner adimage banner adimage banner ad
image banner ad

SJGU - Araguatins

Situé à Araguatins, Brazil

ICAO - SJGU, IATA -

Données fournies par Airmate  

Information générale

Coordonnées: S5°41'4" W48°6'56"
Élévation : 410 feet MSL.
Variation magnétique : -20.976268063° East
Voir autres Aéroports à Tocatins

Données opérationnelles

Special qualification required
Heure actuelle UTC:
Heure actuelle locale:
Météo à : SBIZ - Prefeito Renato Moreira ( 75 km )
METAR: SBIZ 220900Z 13001KT CAVOK 24/23 Q1012
Voir NOTAMs / SUP AIP / TFR affectant cet aéroport [VIEW]
Fréquences de communication: [VIEW]

Pistes:

Identifiant RWYQFULongueur (ft)Largeur (ft)SurfaceLDA (ft)
12492198ASPH
30492198ASPH

Coordonnées de l'aéroport

Adresse: Araguatins Brazil

Vue satellite de SJGU